Time;durP1;ratioP1;P1;durP2;ratioP2;P2;SDS_P1;SDS_P2;PMS_P1;PMS_P2;Temp;Humidity;BMP_temperature;BMP_pressure;BME280_temperature;BME280_humidity;BME280_pressure;Samples;Min_cycle;Max_cycle;Signal;HPM_P1;HPM_P2
2023/12/02 00:00:50;;;;;;;35.53;17.42;;;;;;;-3.96;83.66;100461.28;5013252;28;20052;-57
2023/12/02 00:03:21;;;;;;;38.13;19.15;;;;;;;-3.92;82.73;100460.63;5023466;28;20056;-57
2023/12/02 00:05:52;;;;;;;35.58;20.30;;;;;;;-3.90;82.61;100471.75;5013666;28;20053;-58
2023/12/02 00:08:24;;;;;;;41.83;19.90;;;;;;;-3.89;82.41;100477.75;5023791;28;20263;-56
2023/12/02 00:10:55;;;;;;;38.72;18.58;;;;;;;-3.87;82.84;100475.25;5013246;28;20107;-57
2023/12/02 00:13:27;;;;;;;36.58;18.70;;;;;;;-3.83;82.49;100477.13;5014220;28;20558;-57
2023/12/02 00:15:58;;;;;;;35.25;17.13;;;;;;;-3.80;82.76;100470.47;5023701;28;20118;-57
2023/12/02 00:18:28;;;;;;;34.08;18.10;;;;;;;-3.80;83.09;100473.03;5013928;28;20083;-58
2023/12/02 00:20:59;;;;;;;27.20;15.27;;;;;;;-3.85;82.73;100469.41;5023621;28;20064;-57
2023/12/02 00:23:30;;;;;;;33.78;15.43;;;;;;;-3.85;82.51;100473.63;5013708;28;20060;-57
2023/12/02 00:26:00;;;;;;;34.42;17.63;;;;;;;-3.73;82.73;100474.19;5023543;28;20052;-56
2023/12/02 00:28:32;;;;;;;30.85;15.73;;;;;;;-3.56;82.82;100483.47;5014654;28;20140;-57
2023/12/02 00:31:03;;;;;;;33.97;17.80;;;;;;;-3.64;82.05;100479.72;5023738;28;20071;-57
2023/12/02 00:33:33;;;;;;;35.65;18.30;;;;;;;-3.63;81.91;100484.00;5013099;28;20052;-57
2023/12/02 00:36:04;;;;;;;34.65;17.95;;;;;;;-3.49;82.51;100477.81;5022837;28;20657;-57
2023/12/02 00:38:35;;;;;;;38.53;20.67;;;;;;;-3.37;82.24;100474.03;5013353;28;20165;-57
2023/12/02 00:41:06;;;;;;;36.60;19.98;;;;;;;-3.15;82.23;100471.56;5023597;28;20049;-58
2023/12/02 00:43:38;;;;;;;34.78;18.20;;;;;;;-2.97;82.20;100460.38;5013274;28;20059;-57
2023/12/02 00:46:09;;;;;;;35.28;18.50;;;;;;;-2.84;81.97;100458.38;5042842;28;20064;-57
2023/12/02 00:48:39;;;;;;;39.78;19.58;;;;;;;-2.80;81.12;100459.38;5016223;28;20049;-57
2023/12/02 00:51:10;;;;;;;37.67;18.50;;;;;;;-2.71;81.21;100454.63;5035464;28;20044;-57
2023/12/02 00:53:40;;;;;;;34.83;17.27;;;;;;;-2.52;81.19;100445.13;5032485;28;20060;-58
2023/12/02 00:56:12;;;;;;;40.28;19.35;;;;;;;-2.40;81.46;100437.91;5042854;28;20055;-57
2023/12/02 00:58:44;;;;;;;43.55;21.52;;;;;;;-2.27;80.94;100432.47;5034848;28;20052;-58
2023/12/02 01:01:14;;;;;;;43.70;21.80;;;;;;;-2.12;80.69;100426.16;5046651;28;20067;-58
2023/12/02 01:03:45;;;;;;;43.95;21.63;;;;;;;-1.94;80.80;100420.88;5035675;28;20498;-58
2023/12/02 01:06:15;;;;;;;45.15;21.25;;;;;;;-1.75;80.43;100419.03;5045934;28;20060;-57
2023/12/02 01:08:45;;;;;;;47.70;23.08;;;;;;;-1.54;80.27;100423.16;5035564;28;20394;-58
2023/12/02 01:11:16;;;;;;;37.63;19.23;;;;;;;-1.58;78.83;100416.19;5045835;28;20052;-58
2023/12/02 01:13:48;;;;;;;38.80;19.95;;;;;;;-1.59;79.32;100424.69;5035989;28;20056;-58
2023/12/02 01:16:18;;;;;;;42.38;20.48;;;;;;;-1.45;79.53;100418.34;5046074;28;20128;-57
2023/12/02 01:18:49;;;;;;;35.70;16.73;;;;;;;-1.54;78.23;100412.91;5035939;28;20048;-57
2023/12/02 01:21:20;;;;;;;38.25;17.63;;;;;;;-1.73;78.78;100419.94;5045666;28;20498;-57
2023/12/02 01:23:50;;;;;;;42.42;20.73;;;;;;;-1.71;79.18;100424.25;5014970;28;20052;-58
2023/12/02 01:26:21;;;;;;;43.67;21.13;;;;;;;-1.79;79.16;100427.41;5026237;28;20558;-59
2023/12/02 01:29:06;;;;;;;49.25;24.50;;;;;;;-1.66;79.75;100422.72;5011385;28;20098;-57
2023/12/02 01:31:36;;;;;;;59.53;29.45;;;;;;;-1.57;80.04;100423.06;5016332;28;20053;-57
2023/12/02 01:34:07;;;;;;;59.85;26.83;;;;;;;-1.43;79.79;100416.69;5045629;28;20823;-58
2023/12/02 01:36:37;;;;;;;43.95;22.33;;;;;;;-1.40;79.42;100421.97;5035071;28;20070;-58
2023/12/02 01:39:08;;;;;;;41.45;18.92;;;;;;;-1.41;78.92;100415.06;5045223;28;20041;-58
2023/12/02 01:41:39;;;;;;;38.70;18.00;;;;;;;-1.40;78.71;100421.06;5034993;28;20075;-58
2023/12/02 01:44:13;;;;;;;36.42;17.80;;;;;;;-1.38;79.15;100407.47;5033632;28;20086;-57
2023/12/02 01:46:43;;;;;;;29.27;15.02;;;;;;;-1.38;78.95;100399.78;5026944;28;20061;-58
2023/12/02 01:49:14;;;;;;;29.02;15.38;;;;;;;-1.31;78.65;100395.75;5045979;28;20457;-58
2023/12/02 01:51:45;;;;;;;25.58;12.40;;;;;;;-1.26;78.22;100395.91;5034906;28;20063;-58
2023/12/02 01:54:17;;;;;;;22.35;11.05;;;;;;;-1.16;77.78;100392.81;5045096;28;20055;-57
2023/12/02 01:56:48;;;;;;;19.73;10.50;;;;;;;-1.00;77.25;100392.53;5034961;28;20048;-57
2023/12/02 01:59:22;;;;;;;16.15;9.93;;;;;;;-0.85;77.22;100391.25;5045166;28;20040;-57
2023/12/02 02:01:52;;;;;;;16.77;7.57;;;;;;;-0.85;76.21;100396.38;5025571;28;20072;-59
2023/12/02 02:04:23;;;;;;;9.23;5.43;;;;;;;-0.87;75.43;100389.50;5025438;28;20876;-58
2023/12/02 02:06:54;;;;;;;9.80;5.10;;;;;;;-0.88;74.78;100392.88;5025839;28;20068;-57
2023/12/02 02:09:24;;;;;;;11.00;4.07;;;;;;;-0.91;73.93;100394.50;5016715;28;20053;-58
2023/12/02 02:11:55;;;;;;;9.20;4.55;;;;;;;-0.95;73.69;100384.94;5024908;28;20152;-56
2023/12/02 02:14:27;;;;;;;7.25;4.20;;;;;;;-0.75;73.72;100388.13;4995877;28;20053;-57
2023/12/02 02:16:57;;;;;;;6.80;3.90;;;;;;;-0.51;73.41;100380.34;5005834;28;20442;-58
2023/12/02 02:19:28;;;;;;;11.50;5.90;;;;;;;-0.49;71.28;100376.97;4996290;28;20045;-57
2023/12/02 02:22:00;;;;;;;10.65;4.93;;;;;;;-0.60;70.60;100373.25;5005695;28;20053;-57
2023/12/02 02:24:31;;;;;;;6.93;4.55;;;;;;;-0.68;71.01;100369.53;4995910;28;20049;-58
2023/12/02 02:27:01;;;;;;;11.48;5.65;;;;;;;-0.78;70.73;100367.53;5005787;28;20049;-57
2023/12/02 02:29:32;;;;;;;14.68;5.97;;;;;;;-1.07;70.87;100364.94;4995600;28;20053;-57
2023/12/02 02:32:02;;;;;;;7.50;4.38;;;;;;;-1.07;71.46;100364.94;5017307;28;20816;-58
2023/12/02 02:34:33;;;;;;;11.60;5.95;;;;;;;-1.13;71.60;100364.72;5016123;28;20060;-57
2023/12/02 02:37:05;;;;;;;14.77;7.63;;;;;;;-1.09;71.72;100356.31;5025436;28;20491;-57
2023/12/02 02:39:36;;;;;;;9.75;5.47;;;;;;;-1.11;71.99;100357.94;5015347;28;20143;-56
2023/12/02 02:42:07;;;;;;;11.55;5.78;;;;;;;-1.07;72.06;100354.66;5026955;28;20114;-56
2023/12/02 02:44:37;;;;;;;13.00;5.63;;;;;;;-1.24;71.75;100345.56;5022865;28;20547;-57
2023/12/02 02:47:08;;;;;;;13.40;5.85;;;;;;;-1.48;72.44;100351.59;5042958;28;20052;-57
2023/12/02 02:49:38;;;;;;;8.88;5.28;;;;;;;-1.66;73.26;100345.88;5034196;28;20056;-57
2023/12/02 02:52:11;;;;;;;8.50;5.10;;;;;;;-1.59;73.93;100338.44;5044168;28;20045;-57
2023/12/02 02:54:41;;;;;;;10.73;4.72;;;;;;;-1.49;74.09;100331.06;5017545;28;20053;-57
2023/12/02 02:57:11;;;;;;;11.00;5.32;;;;;;;-1.44;74.67;100343.22;5024666;28;20525;-58
2023/12/02 02:59:42;;;;;;;10.63;5.25;;;;;;;-1.32;74.27;100333.34;5014547;28;20059;-57
2023/12/02 03:02:12;;;;;;;9.52;4.85;;;;;;;-1.16;74.08;100327.03;5024743;28;20149;-57
2023/12/02 03:04:43;;;;;;;7.03;3.95;;;;;;;-1.18;73.79;100330.34;5015078;28;20057;-57
2023/12/02 03:07:15;;;;;;;6.85;3.42;;;;;;;-1.08;73.67;100327.25;5024964;28;20049;-56
2023/12/02 03:09:45;;;;;;;7.20;3.28;;;;;;;-1.17;73.21;100325.28;5014129;28;20049;-57
2023/12/02 03:12:16;;;;;;;6.07;2.65;;;;;;;-1.15;73.20;100320.19;5024549;28;20080;-57
2023/12/02 03:14:47;;;;;;;6.60;3.85;;;;;;;-1.15;72.93;100322.75;5014178;28;20394;-57
2023/12/02 03:17:21;;;;;;;7.05;3.42;;;;;;;-1.10;73.07;100323.78;5024544;28;20049;-59
2023/12/02 03:19:52;;;;;;;6.15;3.00;;;;;;;-1.10;73.00;100316.97;5023819;28;20086;-58
2023/12/02 03:22:24;;;;;;;7.40;2.83;;;;;;;-1.11;73.34;100316.91;5024095;28;20107;-59
2023/12/02 03:24:55;;;;;;;5.05;2.92;;;;;;;-1.06;73.46;100330.75;5013479;28;20053;-57
2023/12/02 03:27:25;;;;;;;5.10;2.50;;;;;;;-1.12;73.56;100330.56;5025284;28;20067;-57
2023/12/02 03:29:56;;;;;;;30.13;5.20;;;;;;;-1.24;73.84;100330.19;5036802;28;20114;-57
2023/12/02 03:32:26;;;;;;;5.03;3.13;;;;;;;-1.19;74.79;100333.75;5027588;28;20113;-56
2023/12/02 03:34:57;;;;;;;5.88;2.83;;;;;;;-1.23;74.76;100326.78;5039651;28;20106;-55
2023/12/02 03:37:29;;;;;;;6.18;2.75;;;;;;;-1.11;75.32;100329.75;5027423;28;20079;-56
2023/12/02 03:39:59;;;;;;;5.20;2.70;;;;;;;-1.04;75.17;100325.69;5037614;28;20361;-56
2023/12/02 03:42:34;;;;;;;6.32;2.88;;;;;;;-0.95;74.84;100326.84;5026610;28;20391;-54
2023/12/02 03:45:06;;;;;;;5.50;2.78;;;;;;;-1.01;74.56;100318.94;5036525;28;20063;-55
2023/12/02 03:47:37;;;;;;;4.93;2.80;;;;;;;-0.90;75.03;100315.03;5025498;28;20055;-56
2023/12/02 03:50:09;;;;;;;3.83;2.42;;;;;;;-0.85;73.71;100317.72;5037058;28;20138;-54
2023/12/02 03:52:41;;;;;;;6.72;2.70;;;;;;;-0.78;74.29;100316.22;5024988;28;20376;-57
2023/12/02 03:55:11;;;;;;;5.78;2.45;;;;;;;-0.78;73.37;100327.34;5037969;28;20380;-55
2023/12/02 03:57:42;;;;;;;7.20;3.00;;;;;;;-0.70;73.54;100320.75;5025033;28;20048;-55
2023/12/02 04:00:13;;;;;;;4.97;3.15;;;;;;;-0.57;73.46;100324.56;5034729;28;20074;-54
2023/12/02 04:02:43;;;;;;;6.38;5.30;;;;;;;-0.34;73.57;100321.78;5024290;28;20601;-55
2023/12/02 04:05:14;;;;;;;5.45;2.80;;;;;;;-0.38;72.30;100319.94;5037133;28;20067;-55
2023/12/02 04:07:46;;;;;;;7.00;2.55;;;;;;;-0.47;72.34;100321.44;5024292;28;20137;-55
2023/12/02 04:10:17;;;;;;;5.15;2.28;;;;;;;-0.45;72.10;100317.22;5040003;28;20062;-55
2023/12/02 04:12:48;;;;;;;4.32;2.25;;;;;;;-0.44;71.04;100312.94;5026485;28;20059;-56
2023/12/02 04:15:22;;;;;;;5.38;2.40;;;;;;;-0.45;71.35;100317.22;5036679;28;20656;-56
2023/12/02 04:17:52;;;;;;;4.18;1.80;;;;;;;-0.45;71.11;100319.78;5026636;28;20132;-58
2023/12/02 04:20:23;;;;;;;4.88;2.47;;;;;;;-0.51;70.22;100311.88;5036997;28;20048;-57
2023/12/02 04:22:55;;;;;;;4.30;2.35;;;;;;;-0.57;70.61;100316.84;5023777;28;20550;-55
2023/12/02 04:25:29;;;;;;;4.05;2.10;;;;;;;-0.56;70.88;100305.75;5026802;28;20052;-54
2023/12/02 04:28:00;;;;;;;2.72;1.77;;;;;;;-0.50;71.03;100297.34;5036294;28;20047;-55
2023/12/02 04:30:30;;;;;;;4.38;2.42;;;;;;;-0.55;70.89;100299.81;5025523;28;20051;-57
2023/12/02 04:33:01;;;;;;;3.95;2.10;;;;;;;-0.72;70.46;100301.00;5038320;28;20049;-56
2023/12/02 04:35:31;;;;;;;3.88;2.20;;;;;;;-0.78;71.07;100305.94;5029801;28;20529;-57
2023/12/02 04:38:04;;;;;;;6.60;2.25;;;;;;;-0.78;71.33;100300.81;5040008;28;20127;-56
2023/12/02 04:40:35;;;;;;;6.82;2.38;;;;;;;-0.78;71.38;100300.81;5030087;28;20048;-55
2023/12/02 04:43:06;;;;;;;3.50;2.53;;;;;;;-0.78;71.35;100305.94;5025858;28;20394;-55
2023/12/02 04:45:36;;;;;;;3.72;2.50;;;;;;;-0.81;72.03;100305.84;5025023;28;20041;-56
2023/12/02 04:48:07;;;;;;;4.60;2.00;;;;;;;-0.89;71.87;100303.94;5040066;28;20136;-57
2023/12/02 04:50:37;;;;;;;6.40;3.28;;;;;;;-1.00;72.13;100310.44;5035594;28;20664;-56
2023/12/02 04:53:10;;;;;;;6.80;3.10;;;;;;;-1.10;72.26;100300.69;5042910;28;20135;-55
2023/12/02 04:55:40;;;;;;;8.13;4.90;;;;;;;-1.10;72.36;100308.38;5035639;28;20059;-56
2023/12/02 04:58:11;;;;;;;4.97;2.35;;;;;;;-1.11;73.17;100311.78;5040793;28;20055;-56
2023/12/02 05:00:42;;;;;;;3.55;2.13;;;;;;;-1.08;73.09;100309.31;5024543;28;20056;-56
2023/12/02 05:03:16;;;;;;;4.15;2.22;;;;;;;-1.18;73.24;100309.84;5035885;28;20117;-55
2023/12/02 05:05:47;;;;;;;4.03;2.30;;;;;;;-1.18;73.81;100312.41;5035334;28;20091;-55
2023/12/02 05:08:19;;;;;;;7.18;6.47;;;;;;;-1.20;74.03;100316.63;5045529;28;20045;-57
2023/12/02 05:10:50;;;;;;;5.30;2.38;;;;;;;-1.25;73.99;100319.03;5035277;28;20058;-56
2023/12/02 05:13:20;;;;;;;4.00;2.40;;;;;;;-1.38;73.75;100315.19;5046328;28;20167;-56
2023/12/02 05:15:51;;;;;;;4.80;2.47;;;;;;;-1.50;74.08;100319.91;5035624;28;20060;-56
2023/12/02 05:18:21;;;;;;;6.25;2.20;;;;;;;-1.47;74.62;100325.19;5046092;28;20479;-56
2023/12/02 05:20:52;;;;;;;5.97;2.95;;;;;;;-1.57;74.55;100325.69;5015618;28;20377;-57
2023/12/02 05:23:24;;;;;;;6.00;2.42;;;;;;;-1.83;75.09;100302.59;5026800;28;20057;-57
2023/12/02 05:25:54;;;;;;;4.45;2.65;;;;;;;-1.66;75.77;100330.50;5017877;28;20699;-56
2023/12/02 05:28:25;;;;;;;4.28;2.40;;;;;;;-1.75;75.88;100321.69;5036005;28;20474;-55
2023/12/02 05:30:55;;;;;;;4.47;2.33;;;;;;;-1.86;76.04;100323.00;5044958;28;20131;-55
2023/12/02 05:33:26;;;;;;;4.43;2.53;;;;;;;-1.87;76.63;100341.75;5034860;28;20522;-55
2023/12/02 05:35:56;;;;;;;6.53;2.60;;;;;;;-1.88;76.86;100324.63;5045440;28;20059;-56
2023/12/02 05:38:28;;;;;;;5.90;2.80;;;;;;;-1.87;78.08;100339.19;5034711;28;20066;-56
2023/12/02 05:40:58;;;;;;;5.03;2.95;;;;;;;-1.84;78.52;100336.72;5045591;28;20052;-54
2023/12/02 05:43:29;;;;;;;6.03;3.17;;;;;;;-1.82;79.03;100334.19;5035298;28;20091;-54
2023/12/02 05:45:59;;;;;;;6.43;2.92;;;;;;;-1.96;78.90;100320.94;5044970;28;20048;-56
2023/12/02 05:48:30;;;;;;;6.38;2.83;;;;;;;-2.00;79.95;100339.56;5035052;28;20059;-57
2023/12/02 05:51:03;;;;;;;7.43;3.08;;;;;;;-2.02;80.41;100341.19;5045390;28;20064;-56
2023/12/02 05:53:35;;;;;;;6.25;2.88;;;;;;;-2.05;80.72;100341.09;5035046;28;20056;-56
2023/12/02 05:56:06;;;;;;;7.88;3.58;;;;;;;-2.15;81.34;100341.59;5045396;28;20048;-56
2023/12/02 05:58:37;;;;;;;10.90;5.40;;;;;;;-2.22;81.99;100337.91;5034991;28;20131;-56
2023/12/02 06:01:09;;;;;;;16.65;7.72;;;;;;;-2.23;82.87;100341.31;5045433;28;20044;-56
2023/12/02 06:03:39;;;;;;;11.15;5.75;;;;;;;-2.27;83.31;100342.00;5034645;28;20498;-56
2023/12/02 06:06:12;;;;;;;13.30;5.85;;;;;;;-2.32;83.78;100339.28;5045268;28;20071;-56
2023/12/02 06:08:44;;;;;;;12.77;6.60;;;;;;;-2.34;84.54;100337.50;5034472;28;20117;-56
2023/12/02 06:11:14;;;;;;;10.38;4.90;;;;;;;-2.41;85.09;100336.38;5044924;28;20051;-56
2023/12/02 06:13:45;;;;;;;9.68;5.68;;;;;;;-2.43;85.33;100338.00;5034545;28;20559;-56
2023/12/02 06:16:15;;;;;;;9.43;5.28;;;;;;;-2.46;85.97;100343.03;5045551;28;20072;-56
2023/12/02 06:18:46;;;;;;;10.43;5.72;;;;;;;-2.47;86.26;100346.38;4996602;28;20053;-56
2023/12/02 06:21:16;;;;;;;12.88;4.90;;;;;;;-2.47;86.81;100346.38;5024834;28;20118;-56
2023/12/02 06:23:48;;;;;;;12.75;7.05;;;;;;;-2.57;87.09;100354.53;5024503;28;20125;-54
2023/12/02 06:26:19;;;;;;;16.77;6.15;;;;;;;-2.61;87.82;100354.41;5034883;28;20048;-55
2023/12/02 06:28:49;;;;;;;20.60;10.82;;;;;;;-2.61;87.91;100354.41;5034400;28;20053;-56
2023/12/02 06:31:20;;;;;;;18.30;9.55;;;;;;;-2.69;88.24;100350.72;5044933;28;20636;-56
2023/12/02 06:33:51;;;;;;;18.70;9.95;;;;;;;-2.79;88.62;100358.84;5033653;28;20068;-55
2023/12/02 06:36:21;;;;;;;20.92;11.00;;;;;;;-2.80;89.54;100357.06;5043943;28;20076;-56
2023/12/02 06:38:53;;;;;;;20.85;11.00;;;;;;;-2.83;89.92;100362.94;5014134;28;20068;-55
2023/12/02 06:41:28;;;;;;;30.88;13.02;;;;;;;-2.83;90.42;100356.97;5014188;28;20053;-55
2023/12/02 06:43:58;;;;;;;24.48;11.75;;;;;;;-2.75;91.06;100359.81;5024031;28;20053;-56
2023/12/02 06:46:28;;;;;;;27.45;12.35;;;;;;;-2.79;90.55;100347.75;5014320;28;20689;-55
2023/12/02 06:48:59;;;;;;;21.50;9.93;;;;;;;-2.80;90.76;100354.53;5024483;28;20147;-56
2023/12/02 06:51:29;;;;;;;22.40;11.02;;;;;;;-2.83;91.12;100367.19;5018278;28;20066;-57
2023/12/02 06:54:01;;;;;;;17.02;8.07;;;;;;;-2.81;91.59;100363.03;5038312;28;20037;-57
2023/12/02 06:56:32;;;;;;;15.40;7.72;;;;;;;-2.80;92.22;100362.19;5028627;28;20068;-57
2023/12/02 06:59:02;;;;;;;25.15;10.98;;;;;;;-2.85;92.21;100361.16;5039658;28;20057;-56
2023/12/02 07:01:34;;;;;;;17.63;8.95;;;;;;;-3.05;92.24;100320.31;5029833;28;20045;-56
2023/12/02 07:04:05;;;;;;;19.00;7.72;;;;;;;-2.80;92.81;100356.22;5030376;28;20045;-56
2023/12/02 07:06:35;;;;;;;11.65;6.30;;;;;;;-2.79;93.06;100363.97;5027850;28;20049;-56
2023/12/02 07:09:08;;;;;;;14.75;6.22;;;;;;;-2.82;92.93;100363.84;5033465;28;20048;-56
2023/12/02 07:11:38;;;;;;;10.63;5.93;;;;;;;-2.81;93.48;100355.34;5027586;28;20483;-57
2023/12/02 07:14:09;;;;;;;16.35;6.45;;;;;;;-2.81;93.68;100355.34;5039159;28;20151;-57
2023/12/02 07:16:39;;;;;;;11.35;6.05;;;;;;;-3.31;93.68;100280.97;5024445;28;20488;-56
2023/12/02 07:19:09;;;;;;;7.65;5.10;;;;;;;-2.91;93.50;100358.38;5035901;28;20491;-57
2023/12/02 07:21:40;;;;;;;9.20;4.53;;;;;;;-2.90;94.16;100349.88;5024215;28;20060;-57
2023/12/02 07:24:12;;;;;;;8.25;4.43;;;;;;;-2.92;94.61;100357.50;5035819;28;20052;-56
2023/12/02 07:26:42;;;;;;;7.45;4.25;;;;;;;-2.88;94.84;100348.25;5024396;28;20045;-57
2023/12/02 07:29:12;;;;;;;9.00;4.38;;;;;;;-2.88;94.76;100343.13;5034533;28;20543;-57
2023/12/02 07:31:45;;;;;;;8.23;3.83;;;;;;;-2.82;95.06;100348.50;5023825;28;20797;-57
2023/12/02 07:34:15;;;;;;;5.47;4.10;;;;;;;-2.85;94.72;100343.25;5034976;28;20163;-57
2023/12/02 07:36:46;;;;;;;6.10;4.22;;;;;;;-2.92;94.47;100331.94;5026243;28;20048;-56
2023/12/02 07:39:18;;;;;;;6.90;4.05;;;;;;;-2.85;94.63;100338.13;5045613;28;20092;-57
2023/12/02 07:41:49;;;;;;;6.85;3.95;;;;;;;-2.86;94.65;100341.50;5026088;28;20052;-56
2023/12/02 07:44:20;;;;;;;7.80;3.65;;;;;;;-2.86;94.75;100341.50;5036718;28;20070;-57
2023/12/02 07:46:50;;;;;;;4.97;3.35;;;;;;;-2.89;94.76;100341.41;5025892;28;20060;-57
2023/12/02 07:49:21;;;;;;;7.35;4.25;;;;;;;-2.92;94.67;100347.28;5036843;28;20080;-56
2023/12/02 07:51:51;;;;;;;8.60;3.72;;;;;;;-2.89;94.91;100356.75;5025011;28;20083;-57
2023/12/02 07:54:23;;;;;;;7.03;4.00;;;;;;;-2.89;94.79;100351.63;5035696;28;20060;-56
2023/12/02 07:56:53;;;;;;;6.35;3.45;;;;;;;-2.93;94.97;100354.88;5025258;28;20049;-57
2023/12/02 07:59:24;;;;;;;5.38;2.80;;;;;;;-2.93;94.87;100352.31;5027911;28;20055;-56
2023/12/02 08:01:54;;;;;;;11.90;6.68;;;;;;;-2.96;94.66;100349.63;5035076;28;20899;-57
2023/12/02 08:04:25;;;;;;;8.75;4.18;;;;;;;-2.97;94.77;100353.88;5027943;28;21330;-57
2023/12/02 08:06:55;;;;;;;7.88;3.53;;;;;;;-2.96;95.05;100344.53;5035153;28;20103;-57
2023/12/02 08:09:27;;;;;;;7.43;3.90;;;;;;;-2.97;94.74;100342.75;5025685;28;20123;-57
2023/12/02 08:11:58;;;;;;;11.75;5.22;;;;;;;-2.96;94.82;100345.41;5036638;28;20052;-57
2023/12/02 08:14:28;;;;;;;11.25;5.90;;;;;;;-2.93;94.75;100349.75;5025109;28;20075;-57
2023/12/02 08:16:59;;;;;;;7.72;4.22;;;;;;;-2.97;94.23;100353.00;5036071;28;20067;-57
2023/12/02 08:19:29;;;;;;;8.30;3.95;;;;;;;-2.93;94.53;100358.28;5026559;28;20498;-57
2023/12/02 08:22:00;;;;;;;7.43;3.35;;;;;;;-2.92;94.67;100362.59;5036150;28;20059;-56
2023/12/02 08:24:32;;;;;;;5.53;3.20;;;;;;;-2.90;94.20;100357.53;5025354;28;20048;-57
2023/12/02 08:27:03;;;;;;;7.28;3.58;;;;;;;-2.89;94.24;100361.84;5035753;28;20175;-57
2023/12/02 08:29:33;;;;;;;7.93;3.55;;;;;;;-2.92;93.99;100354.03;5025977;28;20523;-57
2023/12/02 08:32:04;;;;;;;6.95;3.88;;;;;;;-2.94;93.97;100355.69;5035674;28;20741;-57
2023/12/02 08:34:34;;;;;;;4.63;2.92;;;;;;;-2.97;94.01;100358.09;5025887;28;20056;-55
2023/12/02 08:37:05;;;;;;;6.70;4.07;;;;;;;-3.00;93.62;100358.84;5037311;28;20056;-55
2023/12/02 08:39:37;;;;;;;6.07;2.70;;;;;;;-3.01;93.94;100362.25;5022618;28;20052;-56
2023/12/02 08:42:08;;;;;;;5.32;3.15;;;;;;;-3.03;93.66;100353.63;5035193;28;20149;-57
2023/12/02 08:44:39;;;;;;;4.93;3.13;;;;;;;-3.09;93.80;100354.28;5022826;28;20048;-57
2023/12/02 08:47:10;;;;;;;5.68;3.03;;;;;;;-3.13;93.85;100347.28;5033725;28;20048;-57
2023/12/02 08:49:41;;;;;;;5.97;3.05;;;;;;;-3.12;93.96;100349.03;5025318;28;20054;-56
2023/12/02 08:52:11;;;;;;;6.75;3.20;;;;;;;-3.03;93.36;100357.06;5035372;28;20056;-57
2023/12/02 08:54:43;;;;;;;4.32;3.10;;;;;;;-3.04;93.29;100363.00;5024427;28;20139;-57
2023/12/02 08:57:13;;;;;;;7.45;3.80;;;;;;;-3.11;93.22;100355.88;5034966;28;20053;-56
2023/12/02 08:59:44;;;;;;;8.02;4.07;;;;;;;-3.18;93.39;100359.00;5024475;28;20070;-56
2023/12/02 09:02:14;;;;;;;7.20;3.58;;;;;;;-3.12;93.99;100364.38;5035069;28;20045;-57
2023/12/02 09:04:45;;;;;;;21.30;14.25;;;;;;;-3.11;93.74;100368.66;5021512;28;20495;-56
2023/12/02 09:07:16;;;;;;;14.77;8.93;;;;;;;-3.13;94.29;100372.84;5034821;28;20060;-56
2023/12/02 09:09:48;;;;;;;7.57;5.32;;;;;;;-3.14;94.19;100386.44;5024928;28;20052;-57
2023/12/02 09:12:19;;;;;;;8.60;4.70;;;;;;;-3.17;94.22;100386.31;5035063;28;20079;-56
2023/12/02 09:15:07;;;;;;;6.55;3.90;;;;;;;-3.19;94.43;100375.16;5023316;28;20056;-57
2023/12/02 09:18:09;;;;;;;9.40;4.97;;;;;;;-3.13;94.69;100377.94;5024645;28;20117;-56
2023/12/02 09:20:45;;;;;;;11.20;4.88;;;;;;;-3.09;94.99;100379.81;5028159;28;20582;-56
2023/12/02 09:23:17;;;;;;;9.48;4.70;;;;;;;-3.07;95.22;100373.09;5038805;28;20113;-56
2023/12/02 09:25:50;;;;;;;8.77;4.60;;;;;;;-3.04;94.69;100375.78;5028359;28;20602;-57
2023/12/02 09:28:26;;;;;;;9.85;4.57;;;;;;;-3.05;94.62;100376.56;5039624;28;20150;-56
2023/12/02 09:31:02;;;;;;;11.57;4.05;;;;;;;-3.38;94.49;100319.00;5020119;28;20778;-57
2023/12/02 09:33:39;;;;;;;6.50;3.30;;;;;;;-3.27;94.12;100359.50;5020300;28;20701;-56
2023/12/02 09:36:30;;;;;;;10.95;3.90;;;;;;;-3.34;94.29;100346.44;5032840;28;20061;-57
2023/12/02 09:39:19;;;;;;;12.43;5.00;;;;;;;-3.06;94.76;100384.19;5023139;28;20147;-56
2023/12/02 09:41:54;;;;;;;21.92;7.13;;;;;;;-3.28;94.56;100341.56;5019453;28;20070;-57
2023/12/02 09:44:30;;;;;;;12.25;5.93;;;;;;;-3.04;94.02;100388.56;5025207;28;20444;-56
2023/12/02 09:47:07;;;;;;;8.15;3.80;;;;;;;-3.12;94.21;100389.94;5036177;28;20097;-56
2023/12/02 09:49:52;;;;;;;10.15;3.22;;;;;;;-3.03;94.33;100389.41;5036425;28;20077;-57
2023/12/02 09:52:50;;;;;;;9.52;5.07;;;;;;;-3.05;94.49;100384.22;5036908;28;20052;-57
2023/12/02 09:55:30;;;;;;;17.15;7.03;;;;;;;-3.13;93.95;100372.84;5038948;28;20753;-57
2023/12/02 09:58:21;;;;;;;19.30;8.77;;;;;;;-3.20;93.75;100381.06;5028572;28;20458;-57
2023/12/02 10:00:55;;;;;;;16.17;7.20;;;;;;;-3.42;94.41;100343.56;5026795;28;20088;-57
2023/12/02 10:03:50;;;;;;;15.98;8.35;;;;;;;-3.10;94.66;100393.41;5028449;28;20105;-57
2023/12/02 10:06:34;;;;;;;15.90;8.73;;;;;;;-3.20;94.66;100373.41;5039156;28;20552;-57
2023/12/02 10:09:14;;;;;;;19.60;8.75;;;;;;;-3.12;94.41;100384.81;5037952;28;20463;-56
2023/12/02 10:11:49;;;;;;;;;;;;;;;-3.14;94.45;100386.44;5028654;28;20056;-57
2023/12/02 10:14:24;;;;;;;7.28;4.05;;;;;;;-3.15;94.83;100384.66;5038101;28;19954;-57
2023/12/02 10:16:55;;;;;;;6.38;3.40;;;;;;;-3.09;95.16;100374.72;5028165;28;20068;-57
2023/12/02 10:19:36;;;;;;;8.27;4.57;;;;;;;-3.06;95.06;100379.94;5028011;28;20139;-57
2023/12/02 10:22:11;;;;;;;9.82;5.00;;;;;;;-3.09;94.19;100382.38;5038616;28;20049;-56
2023/12/02 10:24:46;;;;;;;5.75;2.78;;;;;;;-3.12;94.34;100382.25;5027304;28;20053;-56
2023/12/02 10:27:19;;;;;;;5.78;3.08;;;;;;;-3.18;94.58;100379.44;5036291;28;20059;-57
2023/12/02 10:30:05;;;;;;;8.18;3.00;;;;;;;-3.15;94.71;100383.81;5027175;28;20513;-57
2023/12/02 10:32:44;;;;;;;4.35;2.75;;;;;;;-3.12;94.44;100386.47;5027494;28;20082;-56
2023/12/02 10:35:19;;;;;;;5.65;3.10;;;;;;;-3.14;94.59;100386.44;5037354;28;20130;-57
2023/12/02 10:38:06;;;;;;;6.57;2.78;;;;;;;-3.05;94.79;100381.69;5027648;28;20075;-57
2023/12/02 10:40:36;;;;;;;4.35;2.60;;;;;;;-3.01;94.34;100381.81;5028768;28;20060;-57
2023/12/02 10:43:11;;;;;;;6.00;3.35;;;;;;;-3.03;94.33;100390.28;5047731;28;20062;-57
2023/12/02 10:45:44;;;;;;;8.23;3.00;;;;;;;-3.03;94.22;100380.06;5011891;28;20072;-57
2023/12/02 10:48:17;;;;;;;5.47;3.17;;;;;;;-3.08;94.00;100385.81;5030775;28;20084;-57
2023/12/02 10:50:52;;;;;;;5.00;2.70;;;;;;;-3.05;94.86;100381.69;5027439;28;20400;-56
2023/12/02 10:53:24;;;;;;;7.03;3.30;;;;;;;-3.01;94.90;100376.72;5037795;28;20044;-56
2023/12/02 10:55:59;;;;;;;6.03;2.90;;;;;;;-2.97;94.64;100376.91;5027912;28;20060;-56
2023/12/02 10:58:31;;;;;;;8.00;3.20;;;;;;;-2.99;94.49;100369.97;5028131;28;20049;-56
2023/12/02 11:01:09;;;;;;;6.05;2.40;;;;;;;-3.03;93.71;100369.84;5037265;28;20531;-57
2023/12/02 11:03:51;;;;;;;6.13;2.80;;;;;;;-3.05;93.42;100371.44;5026584;28;20623;-56
2023/12/02 11:06:29;;;;;;;5.47;2.40;;;;;;;-3.05;93.52;100371.44;5036980;28;20498;-56
2023/12/02 11:09:06;;;;;;;6.30;2.72;;;;;;;-2.99;93.03;100364.88;5026193;28;20130;-56
2023/12/02 11:12:03;;;;;;;3.80;2.30;;;;;;;-3.23;92.09;100331.53;5027302;28;20049;-57
2023/12/02 11:14:40;;;;;;;3.30;2.17;;;;;;;-3.10;90.93;100352.50;5026930;28;20433;-56
2023/12/02 11:17:30;;;;;;;6.22;2.53;;;;;;;-3.04;90.01;100363.00;5036378;28;20130;-57
2023/12/02 11:20:09;;;;;;;2.75;1.80;;;;;;;-3.05;89.60;100360.34;5026858;28;20102;-56
2023/12/02 11:22:52;;;;;;;2.65;1.90;;;;;;;-2.98;89.20;100362.34;5025981;28;20051;-57
2023/12/02 11:25:39;;;;;;;2.33;1.90;;;;;;;-2.94;88.72;100363.38;5037362;28;20571;-56
2023/12/02 11:28:21;;;;;;;4.13;1.90;;;;;;;-2.88;88.01;100359.34;5040262;28;20076;-57
2023/12/02 11:31:06;;;;;;;3.65;2.20;;;;;;;-2.93;87.30;100359.97;5034148;28;20269;-56
2023/12/02 11:33:52;;;;;;;3.05;1.90;;;;;;;-2.93;87.13;100359.97;5035675;28;20048;-56
2023/12/02 11:36:33;;;;;;;5.13;2.10;;;;;;;-2.94;86.60;100363.38;5044860;28;20048;-57
2023/12/02 11:39:11;;;;;;;3.90;2.28;;;;;;;-2.96;86.31;100359.88;5024986;28;20049;-57
2023/12/02 11:41:53;;;;;;;4.07;1.92;;;;;;;-3.00;85.88;100347.75;5017224;28;20045;-57
2023/12/02 11:44:37;;;;;;;3.42;1.98;;;;;;;-2.99;86.48;100354.63;5026453;28;20494;-56
2023/12/02 11:47:26;;;;;;;5.95;3.05;;;;;;;-3.00;86.80;100358.00;5033731;28;20538;-57